Portada
METAR-TAF:

METAR-TAF

Aeropuertos :

Salerno, Italia

latitud: 40-37N, longitud: 014-55E, altitud: 40 m

Observación

El informe se hizo hace 10 horas y 38 minutos, a las 15:50 UTC
Viento 11 kt del sur-suroeste
Temperatura 13°C
Humedad 88%
Presión 997 hPa
Visibilidad: 6000 m
Cielo nuboso a una altura de 1500 ft

METAR: LIRI 241550Z 20011KT 6000 BKN015 13/11 Q0997

Hora: 03:28 (02:28 UTC)


TAF: falta

Observaciones y pronósticos meteorológicos de más de 4000 aeropuertos (mensajes METAR y TAF).

Los puntos amarillos y rojos representan las estaciones disponibles.

Ponga el ratón en el punto deseado para ver el nombre de la estación.

Haga clic para ver las observaciones y los pronósticos meteorológicos.

Para cambiar el mapa : haga clic en los botones verdes con una cruz de color negro para hacer un zoom, en el botón verde con un guión para alejar o en las flechas verdes para mapas adyacentes.


METAR-TAF: